Currently 62°F in Riverside (Orangecrest), California, USA
62°F
65°F / 61°F
3 mph SE
0.00"
Tuesday, September 26, 2017 5:44 AM PDT

Riverside (Orangecrest), California Weather Summary
Last 36 Hours

Temperature Winds Hourly Humidity Dewpoint
Time Report Norm Report Norm Max Gusts Precip. Rpt. Norm Rpt. Norm Pressure
1Tue 05:44 AM  61.7°F  57°F  3 mph SE  2 mph  4 mph  0.00"  30%  69%  28°F  46°F  29.83"
3Tue 05:02 AM  60.5°F  58°F  3 mph SE  2 mph  5 mph  ----  32%  67%  29°F  46°F  29.83"
Tue 05:00 AM  60.6°F  58°F  3 mph SE  2 mph  5 mph  0.00"  32%  67%  29°F  46°F  29.83"
Tue 04:00 AM  61.6°F  57°F  calm  1 mph  5 mph  0.00"  29%  68%  28°F  47°F  29.83"
Tue 03:00 AM  63.4°F  58°F  4 mph NE  1 mph  6 mph  0.00"  23%  69%  24°F  48°F  29.83"
Tue 02:00 AM  62.9°F  58°F  3 mph NE  2 mph  6 mph  0.00"  25%  69%  25°F  48°F  29.84"
Tue 01:00 AM  63.4°F  59°F  4 mph NE  2 mph  6 mph  0.00"  24%  66%  25°F  47°F  29.84"
2Tue 12:34 AM  65.1°F  59°F  calm  2 mph  none  ----  24%  66%  26°F  47°F  29.85"
Tue 12:00 AM  64.3°F  59°F  5 mph NE  1 mph  5 mph  0.00"  24%  66%  25°F  48°F  29.86"
Mon 11:00 PM  65.3°F  60°F  3 mph S  2 mph  6 mph  0.00"  23%  65%  25°F  48°F  29.86"
Mon 10:00 PM  68.3°F  61°F  2 mph W  3 mph  8 mph  0.00"  17%  63%  20°F  47°F  29.86"
Mon 09:00 PM  69.0°F  62°F  4 mph W  4 mph  13 mph  0.00"  16%  60%  20°F  47°F  29.85"
Mon 08:00 PM  70.8°F  63°F  6 mph SW  6 mph  16 mph  0.00"  16%  55%  21°F  46°F  29.83"
Mon 07:00 PM  73.0°F  66°F  9 mph SW  5 mph  19 mph  0.00"  16%  48%  23°F  45°F  29.81"
Mon 06:00 PM  77.1°F  69°F  10 mph SW  7 mph  19 mph  0.00"  12%  41%  18°F  44°F  29.80"
Mon 05:00 PM  80.5°F  71°F  10 mph NW  8 mph  18 mph  0.00"  7%  39%  7°F  43°F  29.79"
Mon 04:00 PM  81.1°F  72°F  10 mph W  7 mph  20 mph  0.00"  6%  36%  6°F  42°F  29.80"
Mon 03:00 PM  80.4°F  72°F  10 mph NW  5 mph  18 mph  0.00"  7%  35%  7°F  42°F  29.82"
Mon 02:00 PM  80.0°F  72°F  8 mph W  5 mph  19 mph  0.00"  7%  35%  6°F  41°F  29.84"
Mon 01:00 PM  79.1°F  70°F  11 mph NW  6 mph  23 mph  0.00"  8%  37%  9°F  42°F  29.87"
Mon 12:00 PM  76.8°F  68°F  5 mph E  5 mph  12 mph  0.00"  8%  42%  7°F  44°F  29.89"
Mon 11:00 AM  76.8°F  67°F  2 mph E  4 mph  11 mph  0.00"  9%  44%  11°F  44°F  29.91"
Mon 10:00 AM  73.4°F  65°F  7 mph NW  3 mph  12 mph  0.00"  10%  51%  12°F  46°F  29.92"
Mon 09:00 AM  68.4°F  61°F  4 mph NW  3 mph  4 mph  0.00"  22%  65%  26°F  49°F  29.93"
Mon 08:00 AM  62.7°F  58°F  calm  3 mph  3 mph  0.00"  34%  76%  33°F  50°F  29.92"
Mon 07:00 AM  59.4°F  56°F  calm  3 mph  7 mph  0.00"  34%  79%  30°F  50°F  29.91"
Mon 06:00 AM  62.3°F  56°F  1 mph NE  2 mph  6 mph  0.00"  25%  80%  24°F  50°F  29.89"
Mon 05:00 AM  67.4°F  57°F  2 mph NW  2 mph  5 mph  0.00"  15%  79%  17°F  50°F  29.88"
Mon 04:00 AM  63.1°F  57°F  1 mph SW  2 mph  4 mph  0.00"  25%  79%  25°F  50°F  29.88"
Mon 03:00 AM  64.8°F  57°F  1 mph NW  1 mph  4 mph  0.00"  30%  80%  31°F  51°F  29.88"
Mon 02:00 AM  64.3°F  58°F  2 mph NE  1 mph  3 mph  0.00"  33%  78%  33°F  51°F  29.89"
Mon 01:00 AM  64.3°F  58°F  2 mph SW  2 mph  5 mph  0.00"  29%  76%  30°F  50°F  29.91"
Mon 12:00 AM  64.3°F  59°F  calm  1 mph  6 mph  0.00"  32%  76%  33°F  51°F  29.91"
Sun 11:00 PM  65.7°F  59°F  4 mph SW  1 mph  7 mph  0.00"  31%  74%  33°F  51°F  29.91"
Sun 10:00 PM  66.5°F  60°F  5 mph SW  2 mph  11 mph  0.00"  31%  71%  33°F  50°F  29.91"
Sun 09:00 PM  67.1°F  62°F  4 mph SW  4 mph  15 mph  0.00"  33%  67%  36°F  50°F  29.91"
Sun 08:00 PM  68.7°F  63°F  10 mph SW  6 mph  16 mph  0.00"  29%  62%  34°F  49°F  29.88"
Sun 07:00 PM  71.8°F  65°F  6 mph SW  5 mph  17 mph  0.00"  21%  56%  28°F  48°F  29.86"
Sun 06:00 PM  76.2°F  68°F  12 mph NW  6 mph  18 mph  0.00"  10%  50%  12°F  48°F  29.85"

  1. Current weather data. No green row appears if the current weather data is also the high or low for the current day.
  2. High temperature for the current day.
  3. Low temperature for the current day.

The Riverside (Orangecrest), California weather pages are a service of WeatherCurrents.
Copyright ©Tue Sep 26 05:45:21 PDT 2017  WeatherCurrents. All rights reserved. - Submit questions and comments - Privacy Policy

This page automatically refreshes every 10 minutes.